Strona główna
METAR-TAF:

METAR-TAF

Lotnisko :

Orange County Airport

Montgomery, Nowy Jork, Stany Zjednoczone

Szerokość geograficzna: 41-30-33N, Długość geograficzna: 074-15-54W, wysokość: 111 m

Aktualna obserwacja pogody

Raport powstał 50 minut temu, godzina 18:54 UTC
Wiatr 8 kt od południowo-południowy zachód
Temperatura 1°C
Wilgotność 55%
Ciśnienie 1029 hPa
Widzialność: 16.1 km
bezchmurnie

METAR: KMGJ 081854Z AUTO 21008KT 10SM CLR 01/M07 A3039 RMK AO2 SLP298 T00061072

czas: 14:44 (19:44 UTC)


TAF: brakujący

Obserwacja i prognoza pogody dla ponad 4000 lotnisk (raport METAR i TAF).

Dostępne stacje oznaczono żółtymi i czerwonymi punktami na mapie.

Najedź kursorem aby zobaczyć nazwę stacji.

Kliknij aby zobaczyć obserwacje i prognozy pogody.

Aby zmienić mapę: kliknij na zielony przycisk z czarnym krzyżykiem, aby powiększyć; na zielony przycisk z myślnikiem, aby pomniejszyć; na zielone strzałki, aby przejść do map sąsiednich.


METAR-TAF: